sensor_id;sensor_type;location;lat;lon;timestamp;temperature;humidity
8178;DHT22;4130;48.740;9.132;2023-08-07T00:01:21;10.80;99.90
8178;DHT22;4130;48.740;9.132;2023-08-07T00:03:50;10.80;99.90
8178;DHT22;4130;48.740;9.132;2023-08-07T00:06:17;10.70;99.90
8178;DHT22;4130;48.740;9.132;2023-08-07T00:08:44;10.70;99.90
8178;DHT22;4130;48.740;9.132;2023-08-07T00:11:11;10.70;99.90
8178;DHT22;4130;48.740;9.132;2023-08-07T00:13:39;10.70;99.90
8178;DHT22;4130;48.740;9.132;2023-08-07T00:16:06;10.70;99.90
8178;DHT22;4130;48.740;9.132;2023-08-07T00:18:36;10.70;99.90
8178;DHT22;4130;48.740;9.132;2023-08-07T00:21:05;10.70;99.90
8178;DHT22;4130;48.740;9.132;2023-08-07T00:23:33;10.70;99.90
8178;DHT22;4130;48.740;9.132;2023-08-07T00:26:00;10.70;99.90
8178;DHT22;4130;48.740;9.132;2023-08-07T00:28:28;10.80;99.90
8178;DHT22;4130;48.740;9.132;2023-08-07T00:30:56;10.80;99.90
8178;DHT22;4130;48.740;9.132;2023-08-07T00:33:23;10.80;99.90
8178;DHT22;4130;48.740;9.132;2023-08-07T00:35:50;10.90;99.90
8178;DHT22;4130;48.740;9.132;2023-08-07T00:38:19;10.90;99.90
8178;DHT22;4130;48.740;9.132;2023-08-07T00:40:47;10.90;99.90
8178;DHT22;4130;48.740;9.132;2023-08-07T00:43:14;10.90;99.90
8178;DHT22;4130;48.740;9.132;2023-08-07T00:45:43;10.90;99.90
8178;DHT22;4130;48.740;9.132;2023-08-07T00:48:12;10.90;99.90
8178;DHT22;4130;48.740;9.132;2023-08-07T00:50:40;10.90;99.90
8178;DHT22;4130;48.740;9.132;2023-08-07T00:53:09;11.00;99.90
8178;DHT22;4130;48.740;9.132;2023-08-07T00:55:37;10.90;99.90
8178;DHT22;4130;48.740;9.132;2023-08-07T00:58:04;11.00;99.90
8178;DHT22;4130;48.740;9.132;2023-08-07T01:00:32;11.00;99.90
8178;DHT22;4130;48.740;9.132;2023-08-07T01:02:59;11.00;99.90
8178;DHT22;4130;48.740;9.132;2023-08-07T01:05:28;11.00;99.90
8178;DHT22;4130;48.740;9.132;2023-08-07T01:07:56;11.00;99.90
8178;DHT22;4130;48.740;9.132;2023-08-07T01:10:30;11.00;99.90
8178;DHT22;4130;48.740;9.132;2023-08-07T01:13:06;11.00;99.90
8178;DHT22;4130;48.740;9.132;2023-08-07T01:15:35;11.10;99.90
8178;DHT22;4130;48.740;9.132;2023-08-07T01:18:05;11.10;99.90
8178;DHT22;4130;48.740;9.132;2023-08-07T01:20:34;11.10;99.90
8178;DHT22;4130;48.740;9.132;2023-08-07T01:23:06;11.10;99.90
8178;DHT22;4130;48.740;9.132;2023-08-07T01:25:33;11.10;99.90
8178;DHT22;4130;48.740;9.132;2023-08-07T01:28:08;11.10;99.90
8178;DHT22;4130;48.740;9.132;2023-08-07T01:30:43;11.10;99.90
8178;DHT22;4130;48.740;9.132;2023-08-07T01:33:17;11.20;99.90
8178;DHT22;4130;48.740;9.132;2023-08-07T01:35:53;11.20;99.90
8178;DHT22;4130;48.740;9.132;2023-08-07T01:38:25;11.20;99.90
8178;DHT22;4130;48.740;9.132;2023-08-07T01:40:53;11.20;99.90
8178;DHT22;4130;48.740;9.132;2023-08-07T01:43:21;11.20;99.90
8178;DHT22;4130;48.740;9.132;2023-08-07T01:45:48;11.20;99.90
8178;DHT22;4130;48.740;9.132;2023-08-07T01:48:15;11.20;99.90
8178;DHT22;4130;48.740;9.132;2023-08-07T01:50:42;11.20;99.90
8178;DHT22;4130;48.740;9.132;2023-08-07T01:53:10;11.20;99.90
8178;DHT22;4130;48.740;9.132;2023-08-07T01:55:39;11.20;99.90
8178;DHT22;4130;48.740;9.132;2023-08-07T01:58:06;11.30;99.90
8178;DHT22;4130;48.740;9.132;2023-08-07T02:00:33;11.30;99.90
8178;DHT22;4130;48.740;9.132;2023-08-07T02:03:00;11.20;99.90
8178;DHT22;4130;48.740;9.132;2023-08-07T02:05:27;11.30;99.90
8178;DHT22;4130;48.740;9.132;2023-08-07T02:07:54;11.30;99.90
8178;DHT22;4130;48.740;9.132;2023-08-07T02:10:22;11.30;99.90
8178;DHT22;4130;48.740;9.132;2023-08-07T02:12:51;11.30;99.90
8178;DHT22;4130;48.740;9.132;2023-08-07T02:15:18;11.30;99.90
8178;DHT22;4130;48.740;9.132;2023-08-07T02:17:45;11.30;99.90
8178;DHT22;4130;48.740;9.132;2023-08-07T02:20:11;11.30;99.90
8178;DHT22;4130;48.740;9.132;2023-08-07T02:22:38;11.30;99.90
8178;DHT22;4130;48.740;9.132;2023-08-07T02:25:06;11.30;99.90
8178;DHT22;4130;48.740;9.132;2023-08-07T02:27:33;11.40;99.90
8178;DHT22;4130;48.740;9.132;2023-08-07T02:30:01;11.40;99.90
8178;DHT22;4130;48.740;9.132;2023-08-07T02:32:29;11.40;99.90
8178;DHT22;4130;48.740;9.132;2023-08-07T02:34:56;11.40;99.90
8178;DHT22;4130;48.740;9.132;2023-08-07T02:37:23;11.40;99.90
8178;DHT22;4130;48.740;9.132;2023-08-07T02:39:49;11.40;99.90
8178;DHT22;4130;48.740;9.132;2023-08-07T02:42:16;11.40;99.90
8178;DHT22;4130;48.740;9.132;2023-08-07T02:44:43;11.40;99.90
8178;DHT22;4130;48.740;9.132;2023-08-07T02:47:12;11.40;99.90
8178;DHT22;4130;48.740;9.132;2023-08-07T02:49:39;11.40;99.90
8178;DHT22;4130;48.740;9.132;2023-08-07T02:52:06;11.40;99.90
8178;DHT22;4130;48.740;9.132;2023-08-07T02:54:33;11.30;99.90
8178;DHT22;4130;48.740;9.132;2023-08-07T02:57:00;11.30;99.90
8178;DHT22;4130;48.740;9.132;2023-08-07T02:59:27;11.30;99.90
8178;DHT22;4130;48.740;9.132;2023-08-07T03:01:54;11.30;99.90
8178;DHT22;4130;48.740;9.132;2023-08-07T03:04:22;11.30;99.90
8178;DHT22;4130;48.740;9.132;2023-08-07T03:06:49;11.30;99.90
8178;DHT22;4130;48.740;9.132;2023-08-07T03:09:16;11.20;99.90
8178;DHT22;4130;48.740;9.132;2023-08-07T03:11:43;11.20;99.90
8178;DHT22;4130;48.740;9.132;2023-08-07T03:14:10;11.10;99.90
8178;DHT22;4130;48.740;9.132;2023-08-07T03:16:37;11.10;99.90
8178;DHT22;4130;48.740;9.132;2023-08-07T03:19:03;11.00;99.90
8178;DHT22;4130;48.740;9.132;2023-08-07T03:21:32;11.00;99.90
8178;DHT22;4130;48.740;9.132;2023-08-07T03:23:58;10.90;99.90
8178;DHT22;4130;48.740;9.132;2023-08-07T03:26:25;10.90;99.90
8178;DHT22;4130;48.740;9.132;2023-08-07T03:28:52;10.80;99.90
8178;DHT22;4130;48.740;9.132;2023-08-07T03:31:19;10.80;99.90
8178;DHT22;4130;48.740;9.132;2023-08-07T03:33:46;10.80;99.90
8178;DHT22;4130;48.740;9.132;2023-08-07T03:36:13;10.80;99.90
8178;DHT22;4130;48.740;9.132;2023-08-07T03:38:41;10.80;99.90
8178;DHT22;4130;48.740;9.132;2023-08-07T03:41:08;10.80;99.90
8178;DHT22;4130;48.740;9.132;2023-08-07T03:43:35;10.80;99.90
8178;DHT22;4130;48.740;9.132;2023-08-07T03:46:02;10.80;99.90
8178;DHT22;4130;48.740;9.132;2023-08-07T03:48:29;10.80;99.90
8178;DHT22;4130;48.740;9.132;2023-08-07T03:51:02;10.80;99.90
8178;DHT22;4130;48.740;9.132;2023-08-07T03:53:29;10.80;99.90
8178;DHT22;4130;48.740;9.132;2023-08-07T03:55:57;10.90;99.90
8178;DHT22;4130;48.740;9.132;2023-08-07T03:58:24;10.90;99.90
8178;DHT22;4130;48.740;9.132;2023-08-07T04:00:52;10.90;99.90
8178;DHT22;4130;48.740;9.132;2023-08-07T04:03:19;10.80;99.90
8178;DHT22;4130;48.740;9.132;2023-08-07T04:05:46;10.80;99.90
8178;DHT22;4130;48.740;9.132;2023-08-07T04:08:13;10.80;99.90
8178;DHT22;4130;48.740;9.132;2023-08-07T04:10:40;10.80;99.90
8178;DHT22;4130;48.740;9.132;2023-08-07T04:13:08;10.80;99.90
8178;DHT22;4130;48.740;9.132;2023-08-07T04:15:35;10.80;99.90
8178;DHT22;4130;48.740;9.132;2023-08-07T04:18:02;10.70;99.90
8178;DHT22;4130;48.740;9.132;2023-08-07T04:20:29;10.60;99.90
8178;DHT22;4130;48.740;9.132;2023-08-07T04:22:56;10.60;99.90
8178;DHT22;4130;48.740;9.132;2023-08-07T04:25:23;10.60;99.90
8178;DHT22;4130;48.740;9.132;2023-08-07T04:27:50;10.60;99.90
8178;DHT22;4130;48.740;9.132;2023-08-07T04:30:18;10.60;99.90
8178;DHT22;4130;48.740;9.132;2023-08-07T04:32:45;10.60;99.90
8178;DHT22;4130;48.740;9.132;2023-08-07T04:35:12;10.70;99.90
8178;DHT22;4130;48.740;9.132;2023-08-07T04:37:39;10.70;99.90
8178;DHT22;4130;48.740;9.132;2023-08-07T04:40:07;10.70;99.90
8178;DHT22;4130;48.740;9.132;2023-08-07T04:42:34;10.80;99.90
8178;DHT22;4130;48.740;9.132;2023-08-07T04:45:02;10.80;99.90
8178;DHT22;4130;48.740;9.132;2023-08-07T04:47:30;10.90;99.90
8178;DHT22;4130;48.740;9.132;2023-08-07T04:49:57;10.90;99.90
8178;DHT22;4130;48.740;9.132;2023-08-07T04:52:26;11.00;99.90
8178;DHT22;4130;48.740;9.132;2023-08-07T04:54:53;11.10;99.90
8178;DHT22;4130;48.740;9.132;2023-08-07T04:57:20;11.10;99.90
8178;DHT22;4130;48.740;9.132;2023-08-07T04:59:47;11.10;99.90
8178;DHT22;4130;48.740;9.132;2023-08-07T05:02:14;11.10;99.90
8178;DHT22;4130;48.740;9.132;2023-08-07T05:04:42;11.10;99.90
8178;DHT22;4130;48.740;9.132;2023-08-07T05:07:09;11.20;99.90
8178;DHT22;4130;48.740;9.132;2023-08-07T05:09:36;11.20;99.90
8178;DHT22;4130;48.740;9.132;2023-08-07T05:12:04;11.20;99.90
8178;DHT22;4130;48.740;9.132;2023-08-07T05:14:32;11.30;99.90
8178;DHT22;4130;48.740;9.132;2023-08-07T05:16:59;11.30;99.90
8178;DHT22;4130;48.740;9.132;2023-08-07T05:19:26;11.40;99.90
8178;DHT22;4130;48.740;9.132;2023-08-07T05:21:54;11.40;99.90
8178;DHT22;4130;48.740;9.132;2023-08-07T05:24:21;11.40;99.90
8178;DHT22;4130;48.740;9.132;2023-08-07T05:26:48;11.50;99.90
8178;DHT22;4130;48.740;9.132;2023-08-07T05:29:15;11.50;99.90
8178;DHT22;4130;48.740;9.132;2023-08-07T05:31:42;11.60;99.90
8178;DHT22;4130;48.740;9.132;2023-08-07T05:34:09;11.60;99.90
8178;DHT22;4130;48.740;9.132;2023-08-07T05:36:36;11.70;99.90
8178;DHT22;4130;48.740;9.132;2023-08-07T05:39:06;11.80;99.90
8178;DHT22;4130;48.740;9.132;2023-08-07T05:41:34;11.80;99.90
8178;DHT22;4130;48.740;9.132;2023-08-07T05:44:01;11.90;99.90
8178;DHT22;4130;48.740;9.132;2023-08-07T05:46:28;11.90;99.90
8178;DHT22;4130;48.740;9.132;2023-08-07T05:48:55;12.00;99.90
8178;DHT22;4130;48.740;9.132;2023-08-07T05:51:22;12.10;99.90
8178;DHT22;4130;48.740;9.132;2023-08-07T05:53:49;12.10;99.90
8178;DHT22;4130;48.740;9.132;2023-08-07T05:56:17;12.20;99.90
8178;DHT22;4130;48.740;9.132;2023-08-07T05:58:44;12.20;99.90
8178;DHT22;4130;48.740;9.132;2023-08-07T06:01:11;12.30;99.90
8178;DHT22;4130;48.740;9.132;2023-08-07T06:06:10;12.30;99.90
8178;DHT22;4130;48.740;9.132;2023-08-07T06:08:38;12.40;99.90
8178;DHT22;4130;48.740;9.132;2023-08-07T06:11:05;12.40;99.90
8178;DHT22;4130;48.740;9.132;2023-08-07T06:13:35;12.40;99.90
8178;DHT22;4130;48.740;9.132;2023-08-07T06:16:02;12.50;99.90
8178;DHT22;4130;48.740;9.132;2023-08-07T06:18:29;12.50;99.90
8178;DHT22;4130;48.740;9.132;2023-08-07T06:20:57;12.50;99.90
8178;DHT22;4130;48.740;9.132;2023-08-07T06:23:24;12.50;99.90
8178;DHT22;4130;48.740;9.132;2023-08-07T06:25:51;12.60;99.90
8178;DHT22;4130;48.740;9.132;2023-08-07T06:28:18;12.60;99.90
8178;DHT22;4130;48.740;9.132;2023-08-07T06:30:47;12.70;99.90
8178;DHT22;4130;48.740;9.132;2023-08-07T06:33:14;12.70;99.90
8178;DHT22;4130;48.740;9.132;2023-08-07T06:35:41;12.70;99.90
8178;DHT22;4130;48.740;9.132;2023-08-07T06:38:08;12.70;99.90
8178;DHT22;4130;48.740;9.132;2023-08-07T06:40:35;12.70;99.90
8178;DHT22;4130;48.740;9.132;2023-08-07T06:43:02;12.80;99.90
8178;DHT22;4130;48.740;9.132;2023-08-07T06:45:29;12.90;99.90
8178;DHT22;4130;48.740;9.132;2023-08-07T06:47:58;12.90;99.90
8178;DHT22;4130;48.740;9.132;2023-08-07T06:50:25;13.00;99.90
8178;DHT22;4130;48.740;9.132;2023-08-07T06:52:52;13.10;99.90
8178;DHT22;4130;48.740;9.132;2023-08-07T06:55:20;13.10;99.90
8178;DHT22;4130;48.740;9.132;2023-08-07T06:57:47;13.10;99.90
8178;DHT22;4130;48.740;9.132;2023-08-07T07:00:15;13.20;99.90
8178;DHT22;4130;48.740;9.132;2023-08-07T07:02:42;13.20;99.90
8178;DHT22;4130;48.740;9.132;2023-08-07T07:05:11;13.30;99.90
8178;DHT22;4130;48.740;9.132;2023-08-07T07:07:39;13.30;99.90
8178;DHT22;4130;48.740;9.132;2023-08-07T07:10:06;13.40;99.90
8178;DHT22;4130;48.740;9.132;2023-08-07T07:12:34;13.40;99.90
8178;DHT22;4130;48.740;9.132;2023-08-07T07:15:01;13.50;99.90
8178;DHT22;4130;48.740;9.132;2023-08-07T07:17:28;13.60;99.90
8178;DHT22;4130;48.740;9.132;2023-08-07T07:19:55;13.70;99.90
8178;DHT22;4130;48.740;9.132;2023-08-07T07:22:24;13.70;99.90
8178;DHT22;4130;48.740;9.132;2023-08-07T07:24:51;13.70;99.90
8178;DHT22;4130;48.740;9.132;2023-08-07T07:27:18;13.80;99.90
8178;DHT22;4130;48.740;9.132;2023-08-07T07:29:45;13.80;99.90
8178;DHT22;4130;48.740;9.132;2023-08-07T07:32:12;13.80;99.90
8178;DHT22;4130;48.740;9.132;2023-08-07T07:34:40;13.70;99.90
8178;DHT22;4130;48.740;9.132;2023-08-07T07:37:07;13.50;99.90
8178;DHT22;4130;48.740;9.132;2023-08-07T07:39:36;13.40;99.90
8178;DHT22;4130;48.740;9.132;2023-08-07T07:42:03;13.40;99.90
8178;DHT22;4130;48.740;9.132;2023-08-07T07:44:31;13.40;99.90
8178;DHT22;4130;48.740;9.132;2023-08-07T07:46:59;13.60;99.90
8178;DHT22;4130;48.740;9.132;2023-08-07T07:49:26;13.90;99.90
8178;DHT22;4130;48.740;9.132;2023-08-07T07:51:53;14.00;99.90
8178;DHT22;4130;48.740;9.132;2023-08-07T07:54:20;14.10;99.90
8178;DHT22;4130;48.740;9.132;2023-08-07T07:56:49;14.30;99.90
8178;DHT22;4130;48.740;9.132;2023-08-07T07:59:16;14.40;99.90
8178;DHT22;4130;48.740;9.132;2023-08-07T08:01:43;14.60;99.90
8178;DHT22;4130;48.740;9.132;2023-08-07T08:04:10;14.70;99.90
8178;DHT22;4130;48.740;9.132;2023-08-07T08:06:39;14.90;99.90
8178;DHT22;4130;48.740;9.132;2023-08-07T08:09:06;15.00;99.90
8178;DHT22;4130;48.740;9.132;2023-08-07T08:11:35;15.10;99.90
8178;DHT22;4130;48.740;9.132;2023-08-07T08:14:17;15.00;99.90
8178;DHT22;4130;48.740;9.132;2023-08-07T08:16:44;14.80;99.20
8178;DHT22;4130;48.740;9.132;2023-08-07T08:19:11;14.70;98.80
8178;DHT22;4130;48.740;9.132;2023-08-07T08:21:39;14.50;98.30
8178;DHT22;4130;48.740;9.132;2023-08-07T08:24:06;14.40;97.60
8178;DHT22;4130;48.740;9.132;2023-08-07T08:26:33;14.40;98.50
8178;DHT22;4130;48.740;9.132;2023-08-07T08:29:00;14.50;98.60
8178;DHT22;4130;48.740;9.132;2023-08-07T08:31:29;14.60;98.30
8178;DHT22;4130;48.740;9.132;2023-08-07T08:33:57;14.70;98.50
8178;DHT22;4130;48.740;9.132;2023-08-07T08:36:24;14.80;98.80
8178;DHT22;4130;48.740;9.132;2023-08-07T08:38:51;15.00;98.40
8178;DHT22;4130;48.740;9.132;2023-08-07T08:41:19;15.30;98.40
8178;DHT22;4130;48.740;9.132;2023-08-07T08:43:49;15.60;96.80
8178;DHT22;4130;48.740;9.132;2023-08-07T08:46:20;16.00;96.10
8178;DHT22;4130;48.740;9.132;2023-08-07T08:52:06;16.40;95.40
8178;DHT22;4130;48.740;9.132;2023-08-07T08:54:33;16.60;94.70
8178;DHT22;4130;48.740;9.132;2023-08-07T08:57:01;16.60;95.10
8178;DHT22;4130;48.740;9.132;2023-08-07T08:59:28;16.80;94.70
8178;DHT22;4130;48.740;9.132;2023-08-07T09:02:05;16.90;94.10
8178;DHT22;4130;48.740;9.132;2023-08-07T09:04:33;16.80;94.20
8178;DHT22;4130;48.740;9.132;2023-08-07T09:07:01;16.90;95.00
8178;DHT22;4130;48.740;9.132;2023-08-07T09:09:30;17.10;94.50
8178;DHT22;4130;48.740;9.132;2023-08-07T09:12:00;17.20;94.60
8178;DHT22;4130;48.740;9.132;2023-08-07T09:14:33;17.10;94.80
8178;DHT22;4130;48.740;9.132;2023-08-07T09:17:02;17.10;94.40
8178;DHT22;4130;48.740;9.132;2023-08-07T09:19:31;17.00;94.90
8178;DHT22;4130;48.740;9.132;2023-08-07T09:21:58;16.90;94.50
8178;DHT22;4130;48.740;9.132;2023-08-07T09:24:26;17.00;94.80
8178;DHT22;4130;48.740;9.132;2023-08-07T09:26:56;16.90;94.00
8178;DHT22;4130;48.740;9.132;2023-08-07T09:29:24;16.70;93.80
8178;DHT22;4130;48.740;9.132;2023-08-07T09:31:54;16.70;94.00
8178;DHT22;4130;48.740;9.132;2023-08-07T09:34:21;16.70;93.70
8178;DHT22;4130;48.740;9.132;2023-08-07T09:36:48;16.70;94.10
8178;DHT22;4130;48.740;9.132;2023-08-07T09:39:25;16.80;94.00
8178;DHT22;4130;48.740;9.132;2023-08-07T09:41:58;17.00;94.10
8178;DHT22;4130;48.740;9.132;2023-08-07T09:44:38;17.00;93.60
8178;DHT22;4130;48.740;9.132;2023-08-07T09:47:17;17.10;93.60
8178;DHT22;4130;48.740;9.132;2023-08-07T09:49:46;17.10;92.90
8178;DHT22;4130;48.740;9.132;2023-08-07T09:52:14;16.90;92.90
8178;DHT22;4130;48.740;9.132;2023-08-07T09:54:42;16.80;93.30
8178;DHT22;4130;48.740;9.132;2023-08-07T09:57:11;16.80;93.40
8178;DHT22;4130;48.740;9.132;2023-08-07T09:59:38;16.80;93.50
8178;DHT22;4130;48.740;9.132;2023-08-07T10:02:05;16.90;93.40
8178;DHT22;4130;48.740;9.132;2023-08-07T10:04:33;16.90;93.10
8178;DHT22;4130;48.740;9.132;2023-08-07T10:07:02;16.90;93.50
8178;DHT22;4130;48.740;9.132;2023-08-07T10:09:30;16.80;93.50
8178;DHT22;4130;48.740;9.132;2023-08-07T10:11:59;16.70;93.30
8178;DHT22;4130;48.740;9.132;2023-08-07T10:14:29;16.80;93.70
8178;DHT22;4130;48.740;9.132;2023-08-07T10:16:56;17.00;93.80
8178;DHT22;4130;48.740;9.132;2023-08-07T10:19:23;17.50;93.70
8178;DHT22;4130;48.740;9.132;2023-08-07T10:21:51;17.80;93.10
8178;DHT22;4130;48.740;9.132;2023-08-07T10:24:19;17.90;92.10
8178;DHT22;4130;48.740;9.132;2023-08-07T10:26:47;17.60;92.10
8178;DHT22;4130;48.740;9.132;2023-08-07T10:29:18;17.50;91.70
8178;DHT22;4130;48.740;9.132;2023-08-07T10:31:48;17.20;92.30
8178;DHT22;4130;48.740;9.132;2023-08-07T10:34:16;17.30;92.70
8178;DHT22;4130;48.740;9.132;2023-08-07T10:36:44;17.30;91.80
8178;DHT22;4130;48.740;9.132;2023-08-07T10:39:12;17.30;91.90
8178;DHT22;4130;48.740;9.132;2023-08-07T10:41:40;17.40;92.40
8178;DHT22;4130;48.740;9.132;2023-08-07T10:44:17;17.50;91.60
8178;DHT22;4130;48.740;9.132;2023-08-07T10:46:51;17.50;91.70
8178;DHT22;4130;48.740;9.132;2023-08-07T10:49:32;17.40;91.90
8178;DHT22;4130;48.740;9.132;2023-08-07T10:52:02;17.40;91.50
8178;DHT22;4130;48.740;9.132;2023-08-07T10:54:29;17.30;91.40
8178;DHT22;4130;48.740;9.132;2023-08-07T10:56:56;17.10;91.00
8178;DHT22;4130;48.740;9.132;2023-08-07T10:59:29;17.10;91.60
8178;DHT22;4130;48.740;9.132;2023-08-07T11:01:59;17.30;92.10
8178;DHT22;4130;48.740;9.132;2023-08-07T11:04:27;17.60;91.80
8178;DHT22;4130;48.740;9.132;2023-08-07T11:06:55;17.60;91.60
8178;DHT22;4130;48.740;9.132;2023-08-07T11:09:22;17.70;92.20
8178;DHT22;4130;48.740;9.132;2023-08-07T11:11:49;18.00;92.50
8178;DHT22;4130;48.740;9.132;2023-08-07T11:14:18;18.60;91.70
8178;DHT22;4130;48.740;9.132;2023-08-07T11:16:47;18.60;91.40
8178;DHT22;4130;48.740;9.132;2023-08-07T11:19:17;18.30;91.50
8178;DHT22;4130;48.740;9.132;2023-08-07T11:21:45;17.80;91.60
8178;DHT22;4130;48.740;9.132;2023-08-07T11:24:13;17.40;92.20
8178;DHT22;4130;48.740;9.132;2023-08-07T11:26:42;17.10;92.00
8178;DHT22;4130;48.740;9.132;2023-08-07T11:29:09;16.80;92.20
8178;DHT22;4130;48.740;9.132;2023-08-07T11:31:36;16.60;92.30
8178;DHT22;4130;48.740;9.132;2023-08-07T11:34:04;16.50;92.50
8178;DHT22;4130;48.740;9.132;2023-08-07T11:36:32;16.30;93.10
8178;DHT22;4130;48.740;9.132;2023-08-07T11:39:06;16.10;92.90
8178;DHT22;4130;48.740;9.132;2023-08-07T11:41:34;16.00;93.40
8178;DHT22;4130;48.740;9.132;2023-08-07T11:44:01;15.90;93.40
8178;DHT22;4130;48.740;9.132;2023-08-07T11:46:29;15.80;93.50
8178;DHT22;4130;48.740;9.132;2023-08-07T11:48:56;15.70;93.60
8178;DHT22;4130;48.740;9.132;2023-08-07T11:51:23;15.60;93.00
8178;DHT22;4130;48.740;9.132;2023-08-07T11:53:52;15.60;93.40
8178;DHT22;4130;48.740;9.132;2023-08-07T11:56:22;15.60;93.10
8178;DHT22;4130;48.740;9.132;2023-08-07T11:58:51;15.60;93.50
8178;DHT22;4130;48.740;9.132;2023-08-07T12:01:20;15.60;93.60
8178;DHT22;4130;48.740;9.132;2023-08-07T12:03:52;15.60;94.10
8178;DHT22;4130;48.740;9.132;2023-08-07T12:06:21;15.50;94.60
8178;DHT22;4130;48.740;9.132;2023-08-07T12:08:49;15.40;95.30
8178;DHT22;4130;48.740;9.132;2023-08-07T12:11:19;15.40;95.40
8178;DHT22;4130;48.740;9.132;2023-08-07T12:13:47;15.50;95.70
8178;DHT22;4130;48.740;9.132;2023-08-07T12:16:15;15.50;95.40
8178;DHT22;4130;48.740;9.132;2023-08-07T12:18:44;15.50;95.80
8178;DHT22;4130;48.740;9.132;2023-08-07T12:21:14;15.40;96.00
8178;DHT22;4130;48.740;9.132;2023-08-07T12:23:43;15.10;97.20
8178;DHT22;4130;48.740;9.132;2023-08-07T12:26:10;15.00;99.00
8178;DHT22;4130;48.740;9.132;2023-08-07T12:28:38;15.00;99.60
8178;DHT22;4130;48.740;9.132;2023-08-07T12:31:06;15.10;97.80
8178;DHT22;4130;48.740;9.132;2023-08-07T12:33:33;15.20;98.50
8178;DHT22;4130;48.740;9.132;2023-08-07T12:36:01;15.50;98.40
8178;DHT22;4130;48.740;9.132;2023-08-07T12:38:29;15.80;98.50
8178;DHT22;4130;48.740;9.132;2023-08-07T12:40:56;16.30;98.40
8178;DHT22;4130;48.740;9.132;2023-08-07T12:43:23;16.70;97.30
8178;DHT22;4130;48.740;9.132;2023-08-07T12:45:52;17.20;97.20
8178;DHT22;4130;48.740;9.132;2023-08-07T12:48:19;17.50;96.00
8178;DHT22;4130;48.740;9.132;2023-08-07T12:50:46;17.60;95.60
8178;DHT22;4130;48.740;9.132;2023-08-07T12:53:13;17.80;95.50
8178;DHT22;4130;48.740;9.132;2023-08-07T12:55:40;17.90;95.20
8178;DHT22;4130;48.740;9.132;2023-08-07T12:58:07;18.00;95.30
8178;DHT22;4130;48.740;9.132;2023-08-07T13:00:35;18.10;94.60
8178;DHT22;4130;48.740;9.132;2023-08-07T13:03:06;18.10;94.10
8178;DHT22;4130;48.740;9.132;2023-08-07T13:05:35;18.10;93.90
8178;DHT22;4130;48.740;9.132;2023-08-07T13:08:03;18.10;94.10
8178;DHT22;4130;48.740;9.132;2023-08-07T13:10:31;18.00;94.10
8178;DHT22;4130;48.740;9.132;2023-08-07T13:13:05;18.10;94.40
8178;DHT22;4130;48.740;9.132;2023-08-07T13:15:33;18.40;94.50
8178;DHT22;4130;48.740;9.132;2023-08-07T13:18:01;18.50;93.60
8178;DHT22;4130;48.740;9.132;2023-08-07T13:20:31;18.10;93.30
8178;DHT22;4130;48.740;9.132;2023-08-07T13:23:01;17.80;93.80
8178;DHT22;4130;48.740;9.132;2023-08-07T13:25:32;17.60;93.60
8178;DHT22;4130;48.740;9.132;2023-08-07T13:28:00;17.40;93.90
8178;DHT22;4130;48.740;9.132;2023-08-07T13:30:29;17.20;94.00
8178;DHT22;4130;48.740;9.132;2023-08-07T13:32:57;17.00;94.00
8178;DHT22;4130;48.740;9.132;2023-08-07T13:35:25;16.90;93.90
8178;DHT22;4130;48.740;9.132;2023-08-07T13:37:54;16.70;93.70
8178;DHT22;4130;48.740;9.132;2023-08-07T13:40:22;16.60;94.10
8178;DHT22;4130;48.740;9.132;2023-08-07T13:42:49;16.70;94.80
8178;DHT22;4130;48.740;9.132;2023-08-07T13:45:19;16.90;94.50
8178;DHT22;4130;48.740;9.132;2023-08-07T13:47:47;17.10;94.80
8178;DHT22;4130;48.740;9.132;2023-08-07T13:50:14;17.30;94.20
8178;DHT22;4130;48.740;9.132;2023-08-07T13:52:41;17.50;94.50
8178;DHT22;4130;48.740;9.132;2023-08-07T13:55:09;17.70;93.70
8178;DHT22;4130;48.740;9.132;2023-08-07T13:57:37;17.90;93.90
8178;DHT22;4130;48.740;9.132;2023-08-07T14:00:05;18.00;93.80
8178;DHT22;4130;48.740;9.132;2023-08-07T14:02:34;18.00;93.20
8178;DHT22;4130;48.740;9.132;2023-08-07T14:05:01;18.00;92.90
8178;DHT22;4130;48.740;9.132;2023-08-07T14:07:28;18.00;92.30
8178;DHT22;4130;48.740;9.132;2023-08-07T14:09:57;18.00;91.80
8178;DHT22;4130;48.740;9.132;2023-08-07T14:12:25;18.10;91.80
8178;DHT22;4130;48.740;9.132;2023-08-07T14:14:52;18.10;92.50
8178;DHT22;4130;48.740;9.132;2023-08-07T14:17:19;18.10;92.40
8178;DHT22;4130;48.740;9.132;2023-08-07T14:19:46;18.40;92.20
8178;DHT22;4130;48.740;9.132;2023-08-07T14:22:13;18.70;92.90
8178;DHT22;4130;48.740;9.132;2023-08-07T14:24:40;19.00;92.40
8178;DHT22;4130;48.740;9.132;2023-08-07T14:27:07;19.00;91.60
8178;DHT22;4130;48.740;9.132;2023-08-07T14:29:35;18.70;91.40
8178;DHT22;4130;48.740;9.132;2023-08-07T14:32:03;18.50;92.00
8178;DHT22;4130;48.740;9.132;2023-08-07T14:34:30;18.30;91.60
8178;DHT22;4130;48.740;9.132;2023-08-07T14:36:57;18.20;91.80
8178;DHT22;4130;48.740;9.132;2023-08-07T14:39:24;18.30;92.20
8178;DHT22;4130;48.740;9.132;2023-08-07T14:41:51;18.30;91.50
8178;DHT22;4130;48.740;9.132;2023-08-07T14:44:20;18.30;91.80
8178;DHT22;4130;48.740;9.132;2023-08-07T14:46:50;18.20;92.10
8178;DHT22;4130;48.740;9.132;2023-08-07T14:49:18;18.20;91.90
8178;DHT22;4130;48.740;9.132;2023-08-07T14:51:44;18.10;91.90
8178;DHT22;4130;48.740;9.132;2023-08-07T14:54:12;18.20;92.00
8178;DHT22;4130;48.740;9.132;2023-08-07T14:56:39;18.10;92.00
8178;DHT22;4130;48.740;9.132;2023-08-07T14:59:06;18.00;92.50
8178;DHT22;4130;48.740;9.132;2023-08-07T15:01:33;17.80;92.70
8178;DHT22;4130;48.740;9.132;2023-08-07T15:04:01;17.90;93.50
8178;DHT22;4130;48.740;9.132;2023-08-07T15:06:28;18.00;92.60
8178;DHT22;4130;48.740;9.132;2023-08-07T15:08:55;18.00;92.40
8178;DHT22;4130;48.740;9.132;2023-08-07T15:11:22;18.00;92.60
8178;DHT22;4130;48.740;9.132;2023-08-07T15:13:50;18.00;92.20
8178;DHT22;4130;48.740;9.132;2023-08-07T15:16:17;18.10;92.30
8178;DHT22;4130;48.740;9.132;2023-08-07T15:18:44;18.40;92.50
8178;DHT22;4130;48.740;9.132;2023-08-07T15:21:12;18.60;92.20
8178;DHT22;4130;48.740;9.132;2023-08-07T15:23:39;18.60;91.80
8178;DHT22;4130;48.740;9.132;2023-08-07T15:26:06;18.40;91.70
8178;DHT22;4130;48.740;9.132;2023-08-07T15:28:33;18.40;92.10
8178;DHT22;4130;48.740;9.132;2023-08-07T15:31:00;18.40;91.70
8178;DHT22;4130;48.740;9.132;2023-08-07T15:33:27;18.30;92.20
8178;DHT22;4130;48.740;9.132;2023-08-07T15:35:54;18.10;92.50
8178;DHT22;4130;48.740;9.132;2023-08-07T15:38:23;18.00;92.40
8178;DHT22;4130;48.740;9.132;2023-08-07T15:40:51;18.00;92.50
8178;DHT22;4130;48.740;9.132;2023-08-07T15:43:18;17.90;92.60
8178;DHT22;4130;48.740;9.132;2023-08-07T15:45:45;17.90;92.60
8178;DHT22;4130;48.740;9.132;2023-08-07T15:48:12;17.90;92.60
8178;DHT22;4130;48.740;9.132;2023-08-07T15:50:39;18.00;92.80
8178;DHT22;4130;48.740;9.132;2023-08-07T15:53:08;17.90;92.50
8178;DHT22;4130;48.740;9.132;2023-08-07T15:55:36;17.90;92.70
8178;DHT22;4130;48.740;9.132;2023-08-07T15:58:05;17.80;92.10
8178;DHT22;4130;48.740;9.132;2023-08-07T16:00:33;17.80;92.60
8178;DHT22;4130;48.740;9.132;2023-08-07T16:03:01;17.80;92.30
8178;DHT22;4130;48.740;9.132;2023-08-07T16:05:30;17.80;92.20
8178;DHT22;4130;48.740;9.132;2023-08-07T16:07:57;17.80;92.60
8178;DHT22;4130;48.740;9.132;2023-08-07T16:10:24;17.80;92.20
8178;DHT22;4130;48.740;9.132;2023-08-07T16:12:54;17.80;92.30